Nearby METAR Reports

 

KRDU - Raleigh/Durham, North Carolina, USA
Distance from station: NNW 20mi, 33km
Updated: Thu, 20-Feb-2020 3:51am EST
Overcast
Overcast
 Wind from calm
Wind: Calm
Temperature: 39°F , 4°C
Dew Point: 37°F , 3°C
Humidity: 93%
Barometer: 30.37 inHg , 1028.4 hPa
Clouds: Overcast
Visibility: 10 miles , 16 km
Cloud details: Few Clouds 7500 ft
Overcast 17000 ft
2020/02/20 08:51 KRDU 200851Z 00000KT 10SM FEW075 OVC170 04/03 A3037 RMK AO2 SLP284 T00390033 58009
KJNX - Smithfield Johns, North Carolina, USA
Distance from station: ESE 17mi, 28km
Updated: Thu, 20-Feb-2020 12:35am EST
NOT Current
Clear
Clear
 Wind from calm
Wind: Calm
Temperature: 41°F , 5°C
Dew Point: 41°F , 5°C
Humidity: 100%
Barometer: 30.40 inHg , 1029.5 hPa
Clouds: Clear
Visibility: 10 miles , 16 km
2020/02/20 05:35 KJNX 200535Z AUTO 00000KT 10SM CLR 05/05 A3040 RMK AO2
 
KLHZ - Louisburg/Frankl, North Carolina, USA
Distance from station: NE 33mi, 54km
Updated: Thu, 20-Feb-2020 3:55am EST
Clear
Clear
 Wind from calm
Wind: Calm
Temperature: 34°F , 1°C
Dew Point: 34°F , 1°C
Humidity: 100%
Barometer: 30.40 inHg , 1029.5 hPa
Clouds: Clear
Visibility: 7 miles , 11 km
2020/02/20 08:55 KLHZ 200855Z AUTO 00000KT 7SM CLR 01/01 A3040 RMK AO2
KPOB - Pope Afb, North Carolina, USA
Distance from station: SSW 37mi, 59km
Updated: Thu, 20-Feb-2020 3:56am EST
Overcast
Overcast
 Wind from calm
Wind: Calm
Temperature: 43°F , 6°C
Dew Point: 36°F , 2°C
Humidity: 76%
Barometer: 30.35 inHg , 1027.8 hPa
Clouds: Overcast
Visibility: 10 miles , 16 km
Cloud details: Overcast 8500 ft
2020/02/20 08:56 KPOB 200856Z AUTO 00000KT 10SM OVC085 06/02 A3035 RMK AO2 SLP281 T00640021 57011 $
 
KSCR - Siler City, North Carolina, USA
Distance from station: W 47mi, 75km
Updated: Thu, 20-Feb-2020 12:35am EST
NOT Current
Clear
Clear
 Wind from calm
Wind: Calm
Temperature: 37°F , 3°C
Dew Point: 37°F , 3°C
Humidity: 100%
Barometer: 30.39 inHg , 1029.1 hPa
Clouds: Clear
Visibility: 10 miles , 16 km
2020/02/20 05:35 KSCR 200535Z AUTO 00000KT 10SM CLR 03/03 A3039 RMK AO2 T00250025
KTDF - Roxboro Person, North Carolina, USA
Distance from station: NNW 49mi, 79km
Updated: Thu, 20-Feb-2020 12:35am EST
NOT Current
Clear
Clear
 Wind from calm
Wind: Calm
Temperature: 34°F , 1°C
Dew Point: 34°F , 1°C
Humidity: 100%
Barometer: 30.41 inHg , 1029.8 hPa
Clouds: Clear
Visibility: 10 miles , 16 km
2020/02/20 05:35 KTDF 200535Z AUTO 00000KT 10SM CLR 01/01 A3041 RMK AO2
 
KSOP - Southern Pines, North Carolina, USA
Distance from station: SW 50mi, 80km
Updated: Thu, 20-Feb-2020 3:56am EST
Overcast
Overcast
 Wind from NNE
Wind: NNE 5 mph , 7 km/h
Temperature: 43°F , 6°C
Wind Chill: 40°F , 4°C
Dew Point: 36°F , 2°C
Humidity: 76%
Barometer: 30.35 inHg , 1027.8 hPa
Clouds: Overcast
Visibility: 10 miles , 16 km
Cloud details: Overcast 8500 ft
2020/02/20 08:56 KSOP 200856Z AUTO 03004KT 10SM OVC085 06/02 A3035 RMK AO2 SLP284 T00560017 58013
KHNZ - Henderson/Oxford, North Carolina, USA
Distance from station: N 52mi, 84km
Updated: Thu, 20-Feb-2020 12:35am EST
NOT Current
Clear
Clear
 Wind from calm
Wind: Calm
Temperature: 34°F , 1°C
Dew Point: 34°F , 1°C
Humidity: 100%
Barometer: 30.39 inHg , 1029.1 hPa
Clouds: Clear
Visibility: 10 miles , 16 km
2020/02/20 05:35 KHNZ 200535Z AUTO 00000KT 10SM CLR 01/01 A3039 RMK AO2 T00100007
 
KBUY - Burlington, North Carolina, USA
Distance from station: NW 54mi, 86km
Updated: Thu, 20-Feb-2020 3:54am EST
Clear
Clear
 Wind from calm
Wind: Calm
Temperature: 39°F , 4°C
Dew Point: 34°F , 1°C
Humidity: 81%
Barometer: 30.36 inHg , 1028.1 hPa
Clouds: Clear
Visibility: 10 miles , 16 km
2020/02/20 08:54 KBUY 200854Z AUTO 00000KT 10SM CLR 04/01 A3036 RMK AO2 SLP283 T00440006 58011
KTNB - Boone Watauga Ct, North Carolina, USA
Distance from station: SE 2mi, 3km
Updated: Thu, 20-Feb-2020 3:55am EST

 Wind from calm
Wind: Calm
Temperature: 32°F , 0°C
Dew Point: 27°F , -3°C
Humidity: 80%
Barometer: 30.29 inHg , 1025.7 hPa
Visibility: 10 miles , 16 km
2020/02/20 08:55 KTNB 200855Z AUTO 00000KT 10SM 00/M03 A3029 RMK AO2 T10021032
 
KGEV - Jefferson, North Carolina, USA
Distance from station: NE 21mi, 33km
Updated: Thu, 20-Feb-2020 12:35am EST
NOT Current
Clear
Clear
 Wind from calm
Wind: Calm
Temperature: 32°F , 0°C
Dew Point: 18°F , -8°C
Humidity: 55%
Barometer: 30.34 inHg , 1027.4 hPa
Clouds: Clear
Visibility: 10 miles , 16 km
2020/02/20 05:35 KGEV 200535Z AUTO 00000KT 10SM CLR 00/M08 A3034 RMK AO2 T00001085
KFQD - Rutherfordton, North Carolina, USA
Distance from station: SSW 57mi, 92km
Updated: Wed, 19-Feb-2020 6:15pm EST
NOT Current
Overcast
Overcast
 Wind from ESE
Wind: ESE 6 mph , 9 km/h
Temperature: 48°F , 9°C
Wind Chill: 45°F , 7°C
Dew Point: 27°F , -3°C
Humidity: 43%
Barometer: 30.36 inHg , 1028.1 hPa
Clouds: Overcast
Visibility: 10 miles , 16 km
Cloud details: Overcast 6000 ft
2020/02/19 23:15 KFQD 192315Z AUTO 11005KT 10SM OVC060 09/M03 A3036 RMK AO2
 
KAVL - Asheville, North Carolina, USA
Distance from station: SW 72mi, 117km
Updated: Thu, 20-Feb-2020 3:54am EST
Mostly cloudy
Mostly cloudy
 Wind from S
Wind: S 3 mph , 6 km/h
Temperature: 39°F , 4°C
Dew Point: 32°F , 0°C
Humidity: 75%
Barometer: 30.32 inHg , 1026.8 hPa
Clouds: Mostly cloudy
Visibility: 10 miles , 16 km
Cloud details: Mostly cloudy 8000 ft
2020/02/20 08:54 KAVL 200854Z AUTO 17003KT 10SM BKN080 04/00 A3032 RMK AO2 SLP268 T00440000 56009 $